Time;durP1;ratioP1;P1;durP2;ratioP2;P2;SDS_P1;SDS_P2;PMS_P1;PMS_P2;Temp;Humidity;BMP_temperature;BMP_pressure;BME280_temperature;BME280_humidity;BME280_pressure;Samples;Min_cycle;Max_cycle;Signal;HPM_P1;HPM_P2
2021/05/03 00:02:40;;;;;;;10.60;6.83;;;;;;;;;;10509863;28;20243;-70
2021/05/03 00:07:41;;;;;;;11.47;6.80;;;;;;;;;;10494976;28;20193;-70
2021/05/03 00:12:44;;;;;;;7.97;4.30;;;;;;;;;;10499369;28;20356;-71
2021/05/03 00:17:45;;;;;;;8.83;5.27;;;;;;;;;;10503837;28;20219;-70
2021/05/03 00:22:47;;;;;;;10.10;6.20;;;;;;;;;;10498584;28;20673;-72
2021/05/03 00:27:50;;;;;;;11.80;7.00;;;;;;;;;;10505571;28;20219;-71
2021/05/03 00:32:51;;;;;;;10.27;6.77;;;;;;;;;;10507631;28;20204;-71
2021/05/03 00:37:53;;;;;;;11.83;7.13;;;;;;;;;;10501500;28;20215;-73
2021/05/03 00:42:55;;;;;;;12.40;7.50;;;;;;;;;;10497345;28;20707;-70
2021/05/03 00:47:57;;;;;;;12.13;6.60;;;;;;;;;;10492240;28;20216;-70
2021/05/03 00:52:59;;;;;;;11.57;7.87;;;;;;;;;;10486997;28;20212;-69
2021/05/03 00:58:03;;;;;;;13.33;6.90;;;;;;;;;;10486778;28;20212;-72
2021/05/03 01:03:06;;;;;;;12.77;7.13;;;;;;;;;;10484903;28;20700;-72
2021/05/03 01:08:07;;;;;;;11.30;6.90;;;;;;;;;;10498612;28;20245;-71
2021/05/03 01:13:10;;;;;;;10.63;6.63;;;;;;;;;;10477025;28;20239;-72
2021/05/03 01:18:11;;;;;;;11.17;6.63;;;;;;;;;;10503786;28;20191;-71
2021/05/03 01:23:14;;;;;;;10.60;6.13;;;;;;;;;;10487182;28;20216;-72
2021/05/03 01:28:15;;;;;;;12.80;7.53;;;;;;;;;;10502832;28;20195;-73
2021/05/03 01:33:18;;;;;;;13.57;7.80;;;;;;;;;;10502866;28;20289;-72
2021/05/03 01:38:20;;;;;;;13.30;8.47;;;;;;;;;;10496440;28;20192;-72
2021/05/03 01:43:24;;;;;;;14.57;8.47;;;;;;;;;;10502731;28;20768;-72
2021/05/03 01:48:27;;;;;;;13.33;8.93;;;;;;;;;;10499507;28;20215;-71
2021/05/03 01:53:29;;;;;;;12.73;7.97;;;;;;;;;;10497534;28;20231;-71
2021/05/03 01:58:31;;;;;;;12.57;8.20;;;;;;;;;;10504863;28;20197;-72
2021/05/03 02:03:33;;;;;;;14.57;9.63;;;;;;;;;;10531484;28;20232;-70
2021/05/03 02:08:35;;;;;;;17.33;9.30;;;;;;;;;;10494037;28;20228;-71
2021/05/03 02:13:38;;;;;;;14.57;8.80;;;;;;;;;;10482958;28;20272;-71
2021/05/03 02:18:40;;;;;;;15.33;9.20;;;;;;;;;;10478112;28;20197;-71
2021/05/03 02:23:43;;;;;;;13.40;8.07;;;;;;;;;;10494933;28;20247;-71
2021/05/03 02:28:44;;;;;;;14.37;8.93;;;;;;;;;;10490430;28;20196;-73
2021/05/03 02:33:46;;;;;;;14.20;8.37;;;;;;;;;;10526215;28;20714;-69
2021/05/03 02:38:48;;;;;;;13.23;8.23;;;;;;;;;;10499560;28;20660;-70
2021/05/03 02:43:50;;;;;;;11.97;6.60;;;;;;;;;;10487377;28;20587;-69
2021/05/03 02:48:51;;;;;;;16.33;10.57;;;;;;;;;;10486221;28;20529;-73
2021/05/03 02:53:54;;;;;;;16.27;10.20;;;;;;;;;;10488165;28;20215;-72
2021/05/03 02:58:56;;;;;;;15.27;9.47;;;;;;;;;;10494387;28;20222;-72
2021/05/03 03:03:57;;;;;;;16.17;9.70;;;;;;;;;;10486986;28;20258;-71
2021/05/03 03:09:00;;;;;;;16.10;10.57;;;;;;;;;;10478243;28;20224;-71
2021/05/03 03:14:03;;;;;;;15.30;9.70;;;;;;;;;;10486569;28;20603;-70
2021/05/03 03:19:05;;;;;;;16.00;9.87;;;;;;;;;;10493962;28;20208;-71
2021/05/03 03:24:08;;;;;;;17.57;9.93;;;;;;;;;;10491369;28;20302;-71
2021/05/03 03:29:09;;;;;;;15.37;9.40;;;;;;;;;;10489739;28;20561;-71
2021/05/03 03:34:11;;;;;;;14.53;9.17;;;;;;;;;;10486156;28;20223;-72
2021/05/03 03:39:14;;;;;;;15.10;10.00;;;;;;;;;;10500152;28;20196;-72
2021/05/03 03:44:16;;;;;;;15.67;9.53;;;;;;;;;;10482887;28;20713;-72
2021/05/03 03:49:18;;;;;;;16.50;10.50;;;;;;;;;;10486580;28;20571;-72
2021/05/03 03:54:20;;;;;;;14.40;8.03;;;;;;;;;;10488920;28;20620;-71
2021/05/03 03:59:23;;;;;;;17.63;10.90;;;;;;;;;;10485509;28;20189;-70
2021/05/03 04:04:30;;;;;;;16.07;9.20;;;;;;;;;;10487926;28;20273;-71
2021/05/03 04:09:38;;;;;;;17.30;9.23;;;;;;;;;;10478430;28;22262;-70
2021/05/03 04:25:31;;;;;;;18.40;11.17;;;;;;;;;;10475838;28;20215;-70
2021/05/03 04:30:33;;;;;;;15.90;9.40;;;;;;;;;;10483471;28;20191;-70
2021/05/03 04:35:35;;;;;;;15.73;9.27;;;;;;;;;;10478503;28;20299;-72
2021/05/03 04:40:37;;;;;;;14.47;8.13;;;;;;;;;;10483068;28;20200;-71
2021/05/03 04:45:39;;;;;;;14.73;9.37;;;;;;;;;;10483908;28;20216;-72
2021/05/03 04:50:41;;;;;;;14.93;8.80;;;;;;;;;;10484579;28;20557;-69
2021/05/03 04:55:43;;;;;;;17.23;9.00;;;;;;;;;;10488753;28;20212;-69
2021/05/03 05:00:45;;;;;;;14.87;8.80;;;;;;;;;;10486733;28;20204;-69
2021/05/03 05:05:47;;;;;;;14.10;8.17;;;;;;;;;;10482592;28;20247;-71
2021/05/03 05:10:50;;;;;;;13.17;7.33;;;;;;;;;;10470263;28;20217;-70
2021/05/03 05:15:51;;;;;;;8.30;3.93;;;;;;;;;;10459752;28;20228;-71
2021/05/03 05:20:58;;;;;;;13.63;8.33;;;;;;;;;;10459194;28;20522;-69
2021/05/03 05:26:01;;;;;;;12.63;7.73;;;;;;;;;;10453050;28;20254;-70
2021/05/03 05:31:03;;;;;;;11.73;6.57;;;;;;;;;;10450380;28;20209;-71
2021/05/03 05:36:05;;;;;;;11.63;6.60;;;;;;;;;;10464609;28;20193;-70
2021/05/03 05:41:08;;;;;;;7.63;4.33;;;;;;;;;;10466145;28;20229;-70
2021/05/03 05:46:10;;;;;;;9.50;4.87;;;;;;;;;;10466809;28;20493;-70
2021/05/03 05:51:12;;;;;;;12.33;7.23;;;;;;;;;;10491197;28;20220;-70
2021/05/03 05:56:14;;;;;;;12.23;6.57;;;;;;;;;;10492574;28;20200;-71
2021/05/03 06:01:16;;;;;;;12.30;7.40;;;;;;;;;;10481391;28;20220;-70
2021/05/03 06:06:17;;;;;;;13.30;8.33;;;;;;;;;;10469706;28;20196;-70
2021/05/03 06:11:20;;;;;;;12.57;5.80;;;;;;;;;;10461292;28;20209;-69
2021/05/03 06:16:22;;;;;;;13.60;7.90;;;;;;;;;;10466362;28;20211;-68
2021/05/03 06:21:23;;;;;;;13.27;7.70;;;;;;;;;;10476652;28;20243;-71
2021/05/03 06:26:26;;;;;;;11.83;7.27;;;;;;;;;;10489853;28;20188;-71
2021/05/03 06:31:32;;;;;;;9.73;5.93;;;;;;;;;;10485960;28;20682;-70
2021/05/03 06:36:34;;;;;;;15.40;8.23;;;;;;;;;;10485043;28;20200;-70
2021/05/03 06:41:37;;;;;;;12.13;7.90;;;;;;;;;;10479605;28;20228;-71
2021/05/03 06:46:39;;;;;;;12.40;6.53;;;;;;;;;;10483165;28;20212;-71
2021/05/03 06:51:41;;;;;;;10.90;5.90;;;;;;;;;;10486589;28;20602;-70
2021/05/03 06:56:43;;;;;;;10.77;6.67;;;;;;;;;;10486801;28;20223;-71
2021/05/03 07:01:45;;;;;;;10.03;5.87;;;;;;;;;;10481916;28;20355;-72
2021/05/03 07:06:47;;;;;;;10.73;6.53;;;;;;;;;;10484174;28;20199;-72
2021/05/03 07:11:51;;;;;;;8.83;5.17;;;;;;;;;;10486893;28;20240;-72
2021/05/03 07:16:52;;;;;;;10.30;6.57;;;;;;;;;;10486595;28;20624;-71
2021/05/03 07:21:54;;;;;;;11.57;6.33;;;;;;;;;;10490153;28;20216;-71
2021/05/03 07:26:56;;;;;;;9.30;5.97;;;;;;;;;;10482133;28;20196;-71
2021/05/03 07:31:58;;;;;;;9.27;5.80;;;;;;;;;;10486364;28;20213;-72
2021/05/03 07:37:02;;;;;;;9.10;5.97;;;;;;;;;;10510890;28;20659;-71
2021/05/03 07:42:04;;;;;;;8.87;6.10;;;;;;;;;;10497407;28;20215;-75
2021/05/03 07:47:27;;;;;;;8.80;5.17;;;;;;;;;;10486503;28;20287;-71
2021/05/03 07:52:29;;;;;;;9.10;6.13;;;;;;;;;;10483969;28;20323;-70
2021/05/03 07:57:31;;;;;;;9.10;5.17;;;;;;;;;;10484202;28;20592;-71
2021/05/03 08:02:33;;;;;;;9.20;5.77;;;;;;;;;;10469162;28;20236;-71
2021/05/03 08:07:35;;;;;;;8.47;5.67;;;;;;;;;;10485548;28;20614;-71
2021/05/03 08:12:37;;;;;;;8.70;5.43;;;;;;;;;;10479301;28;20235;-71
2021/05/03 08:17:39;;;;;;;8.10;5.43;;;;;;;;;;10484528;28;20220;-71
2021/05/03 08:22:41;;;;;;;8.50;6.03;;;;;;;;;;10466666;28;20290;-70
2021/05/03 08:27:43;;;;;;;9.10;5.72;;;;;;;;;;10480277;28;20608;-71
2021/05/03 08:32:45;;;;;;;8.85;5.60;;;;;;;;;;10483244;28;20878;-71
2021/05/03 08:37:47;;;;;;;8.87;5.17;;;;;;;;;;10477869;28;20211;-71
2021/05/03 08:42:49;;;;;;;8.07;5.10;;;;;;;;;;10480151;28;20639;-71
2021/05/03 08:48:01;;;;;;;8.57;5.40;;;;;;;;;;10477820;28;20200;-72
2021/05/03 08:53:05;;;;;;;6.40;4.03;;;;;;;;;;10483279;28;20607;-72
2021/05/03 08:58:08;;;;;;;8.07;5.40;;;;;;;;;;10468656;28;20184;-71
2021/05/03 09:03:11;;;;;;;8.20;5.25;;;;;;;;;;10474629;28;20273;-72
2021/05/03 09:08:23;;;;;;;6.82;4.32;;;;;;;;;;10482601;28;20181;-70
2021/05/03 09:13:29;;;;;;;8.20;4.60;;;;;;;;;;10473064;28;20211;-69
2021/05/03 09:18:31;;;;;;;7.37;4.43;;;;;;;;;;10484646;28;20664;-70
2021/05/03 09:23:47;;;;;;;8.37;4.43;;;;;;;;;;10490384;28;20216;-70
2021/05/03 09:28:50;;;;;;;7.17;4.07;;;;;;;;;;10491384;28;20218;-70
2021/05/03 09:33:51;;;;;;;7.53;3.40;;;;;;;;;;10491048;28;20217;-70
2021/05/03 09:38:53;;;;;;;6.53;3.60;;;;;;;;;;10484069;28;20219;-70
2021/05/03 09:44:05;;;;;;;7.33;3.40;;;;;;;;;;10482123;28;20286;-71
2021/05/03 09:49:08;;;;;;;6.25;3.65;;;;;;;;;;10493151;28;20625;-71
2021/05/03 09:54:11;;;;;;;7.70;4.80;;;;;;;;;;10484586;28;20232;-71
2021/05/03 09:59:45;;;;;;;6.78;4.38;;;;;;;;;;10523714;28;20196;-71
2021/05/03 10:04:51;;;;;;;6.27;3.27;;;;;;;;;;10446569;28;20239;-71
2021/05/03 10:09:59;;;;;;;5.73;2.83;;;;;;;;;;10488773;28;20192;-71
2021/05/03 10:15:02;;;;;;;5.23;3.20;;;;;;;;;;10519146;28;20652;-70
2021/05/03 10:20:07;;;;;;;6.65;4.00;;;;;;;;;;10490074;28;20649;-71
2021/05/03 10:25:10;;;;;;;5.82;3.63;;;;;;;;;;10488686;28;20209;-72
2021/05/03 10:30:13;;;;;;;7.57;4.25;;;;;;;;;;10481908;28;20500;-72
2021/05/03 10:35:24;;;;;;;6.80;4.30;;;;;;;;;;10489713;28;20211;-71
2021/05/03 10:40:47;;;;;;;6.60;4.18;;;;;;;;;;10514584;28;20293;-72
2021/05/03 10:46:05;;;;;;;6.90;4.13;;;;;;;;;;10473065;28;20227;-71
2021/05/03 10:51:10;;;;;;;7.60;4.13;;;;;;;;;;10472351;28;20612;-69
2021/05/03 10:56:12;;;;;;;7.53;4.80;;;;;;;;;;10465358;28;20272;-71
2021/05/03 11:01:14;;;;;;;7.03;4.40;;;;;;;;;;10481063;28;20204;-70
2021/05/03 11:06:36;;;;;;;6.95;4.40;;;;;;;;;;10482124;28;20203;-71
2021/05/03 11:11:44;;;;;;;7.05;4.40;;;;;;;;;;10485944;28;20248;-71
2021/05/03 11:16:50;;;;;;;6.85;4.22;;;;;;;;;;10482845;28;20189;-70
2021/05/03 11:21:53;;;;;;;8.10;4.25;;;;;;;;;;10500727;28;20216;-71
2021/05/03 11:26:58;;;;;;;7.93;4.55;;;;;;;;;;10483554;28;20220;-69
2021/05/03 11:32:00;;;;;;;7.40;4.97;;;;;;;;;;10486911;28;20713;-70
2021/05/03 11:37:05;;;;;;;7.80;4.83;;;;;;;;;;10487126;28;20541;-70
2021/05/03 11:42:29;;;;;;;7.73;4.70;;;;;;;;;;10477407;28;20666;-71
2021/05/03 11:47:31;;;;;;;10.00;4.67;;;;;;;;;;10467967;28;20703;-70
2021/05/03 11:52:35;;;;;;;7.43;4.13;;;;;;;;;;10479045;28;20208;-70
2021/05/03 11:57:40;;;;;;;6.10;3.90;;;;;;;;;;10477489;28;20204;-71
2021/05/03 12:02:42;;;;;;;6.77;4.00;;;;;;;;;;10487565;28;20220;-71
2021/05/03 12:07:46;;;;;;;7.77;4.10;;;;;;;;;;10487674;28;20188;-70
2021/05/03 12:12:48;;;;;;;7.93;3.90;;;;;;;;;;10480168;28;20674;-70
2021/05/03 12:17:50;;;;;;;8.10;4.00;;;;;;;;;;10484202;28;20196;-70
2021/05/03 12:22:55;;;;;;;6.45;3.92;;;;;;;;;;10482555;28;20216;-71
2021/05/03 12:27:57;;;;;;;7.23;4.10;;;;;;;;;;10478503;28;20212;-70
2021/05/03 12:32:59;;;;;;;6.73;3.83;;;;;;;;;;10478794;28;20208;-71
2021/05/03 12:38:13;;;;;;;5.83;3.50;;;;;;;;;;10485782;28;20184;-70
2021/05/03 12:43:14;;;;;;;6.43;3.53;;;;;;;;;;10472200;28;20216;-70
2021/05/03 12:48:27;;;;;;;6.20;3.15;;;;;;;;;;10516411;28;20265;-70
2021/05/03 12:53:34;;;;;;;6.05;3.40;;;;;;;;;;10475239;28;20227;-70
2021/05/03 12:58:40;;;;;;;5.40;3.27;;;;;;;;;;10485646;28;20595;-70
2021/05/03 13:03:52;;;;;;;7.43;3.33;;;;;;;;;;10483044;28;20247;-70
2021/05/03 13:09:17;;;;;;;5.73;3.20;;;;;;;;;;10472473;28;20227;-70
2021/05/03 13:25:33;;;;;;;4.47;2.70;;;;;;;;;;10483986;28;20614;-69
2021/05/03 13:30:35;;;;;;;5.82;2.90;;;;;;;;;;10515411;28;20196;-69
2021/05/03 13:35:37;;;;;;;5.80;2.50;;;;;;;;;;10480372;28;20588;-70
2021/05/03 13:40:41;;;;;;;4.00;2.10;;;;;;;;;;10485128;28;20224;-70
2021/05/03 13:45:43;;;;;;;3.83;2.30;;;;;;;;;;10480210;28;20320;-72
2021/05/03 13:50:44;;;;;;;4.07;2.50;;;;;;;;;;10484037;28;20202;-71
2021/05/03 13:55:47;;;;;;;4.30;2.60;;;;;;;;;;10479972;28;20216;-72
2021/05/03 14:00:49;;;;;;;6.43;3.70;;;;;;;;;;10483004;28;20293;-71
2021/05/03 14:05:51;;;;;;;6.40;3.63;;;;;;;;;;10470446;28;20544;-71
2021/05/03 14:10:53;;;;;;;8.83;5.07;;;;;;;;;;10480794;28;20189;-71
2021/05/03 14:15:55;;;;;;;6.18;3.35;;;;;;;;;;10486395;28;20708;-71
2021/05/03 14:20:57;;;;;;;4.93;3.10;;;;;;;;;;10467839;28;20220;-69
2021/05/03 14:26:01;;;;;;;6.50;3.37;;;;;;;;;;10473474;28;20188;-70
2021/05/03 14:31:05;;;;;;;5.23;3.33;;;;;;;;;;10486223;28;20193;-71
2021/05/03 14:36:09;;;;;;;6.07;3.50;;;;;;;;;;10486219;28;20250;-71
2021/05/03 14:41:14;;;;;;;5.50;3.27;;;;;;;;;;10468337;28;20209;-69
2021/05/03 14:46:26;;;;;;;5.00;2.90;;;;;;;;;;10479791;28;20196;-71
2021/05/03 14:51:44;;;;;;;5.73;3.27;;;;;;;;;;10483206;28;20570;-71
2021/05/03 14:56:46;;;;;;;5.47;2.80;;;;;;;;;;10477633;28;20279;-71
2021/05/03 15:01:48;;;;;;;5.27;3.00;;;;;;;;;;10484775;28;20228;-71
2021/05/03 15:06:54;;;;;;;5.57;3.20;;;;;;;;;;10481699;28;20203;-71
2021/05/03 15:11:59;;;;;;;5.30;2.90;;;;;;;;;;10483206;28;20349;-70
2021/05/03 15:17:23;;;;;;;5.67;2.90;;;;;;;;;;10485137;28;20208;-72
2021/05/03 15:22:25;;;;;;;5.73;2.73;;;;;;;;;;10482459;28;20230;-70
2021/05/03 15:27:32;;;;;;;5.67;2.70;;;;;;;;;;10484340;28;20606;-69
2021/05/03 15:33:23;;;;;;;5.27;2.63;;;;;;;;;;10483837;28;20242;-72
2021/05/03 15:38:03;;;;;;;5.97;3.03;;;;;;;;;;10490274;28;20197;-71
2021/05/03 15:43:09;;;;;;;5.50;3.03;;;;;;;;;;10491209;28;20215;-71
2021/05/03 15:48:11;;;;;;;7.53;3.50;;;;;;;;;;10479621;28;20216;-71
2021/05/03 15:53:12;;;;;;;6.07;3.00;;;;;;;;;;10482543;28;20204;-71
2021/05/03 15:58:15;;;;;;;4.93;2.70;;;;;;;;;;10480886;28;20192;-71
2021/05/03 16:03:17;;;;;;;6.97;3.20;;;;;;;;;;10511267;28;20310;-74
2021/05/03 16:08:19;;;;;;;5.00;2.83;;;;;;;;;;10478693;28;20238;-71
2021/05/03 16:13:21;;;;;;;5.83;2.70;;;;;;;;;;10477418;28;20212;-72
2021/05/03 16:18:23;;;;;;;5.43;2.47;;;;;;;;;;10476756;28;20675;-71
2021/05/03 16:23:24;;;;;;;4.47;2.50;;;;;;;;;;10474385;28;20216;-71
2021/05/03 16:28:27;;;;;;;5.67;2.80;;;;;;;;;;10475994;28;20216;-69
2021/05/03 16:33:28;;;;;;;6.37;3.40;;;;;;;;;;10472605;28;20215;-70
2021/05/03 16:38:30;;;;;;;4.80;2.50;;;;;;;;;;10462840;28;20308;-70
2021/05/03 16:43:34;;;;;;;5.80;2.77;;;;;;;;;;10519237;28;20326;-70
2021/05/03 16:48:40;;;;;;;3.97;2.47;;;;;;;;;;10476565;28;20547;-70
2021/05/03 16:53:42;;;;;;;8.83;2.83;;;;;;;;;;10483813;28;20524;-68
2021/05/03 16:58:44;;;;;;;5.13;2.60;;;;;;;;;;10480005;28;20521;-70
2021/05/03 17:03:46;;;;;;;3.63;2.40;;;;;;;;;;10469652;28;20215;-71
2021/05/03 17:08:48;;;;;;;4.20;2.47;;;;;;;;;;10484876;28;20227;-70
2021/05/03 17:13:51;;;;;;;5.53;2.50;;;;;;;;;;10481493;28;20204;-71
2021/05/03 17:18:52;;;;;;;3.83;2.40;;;;;;;;;;10483193;28;20667;-71
2021/05/03 17:23:54;;;;;;;4.57;2.30;;;;;;;;;;10482404;28;20300;-72
2021/05/03 17:29:00;;;;;;;6.17;3.30;;;;;;;;;;10483840;28;20189;-70
2021/05/03 17:34:03;;;;;;;4.90;2.53;;;;;;;;;;10513243;28;20238;-71
2021/05/03 17:39:05;;;;;;;4.67;2.60;;;;;;;;;;10515952;28;20246;-70
2021/05/03 17:44:08;;;;;;;5.73;2.60;;;;;;;;;;10488966;28;20707;-70
2021/05/03 17:49:10;;;;;;;4.27;2.30;;;;;;;;;;10490540;28;20626;-70
2021/05/03 17:54:12;;;;;;;5.97;2.50;;;;;;;;;;10491320;28;20603;-71
2021/05/03 17:59:15;;;;;;;5.67;2.43;;;;;;;;;;10489094;28;20635;-70
2021/05/03 18:04:16;;;;;;;4.60;2.27;;;;;;;;;;10490396;28;20251;-70
2021/05/03 18:09:18;;;;;;;6.13;2.80;;;;;;;;;;10492408;28;20273;-70
2021/05/03 18:14:21;;;;;;;5.40;2.63;;;;;;;;;;10482603;28;20295;-70
2021/05/03 18:19:27;;;;;;;7.13;3.07;;;;;;;;;;10492847;28;20200;-72
2021/05/03 18:24:30;;;;;;;6.13;2.80;;;;;;;;;;10488769;28;20220;-72
2021/05/03 18:29:33;;;;;;;6.77;3.07;;;;;;;;;;10484009;28;20223;-72
2021/05/03 18:34:35;;;;;;;5.50;2.50;;;;;;;;;;10488195;28;20327;-70
2021/05/03 18:39:36;;;;;;;8.27;2.77;;;;;;;;;;10489746;28;20209;-70
2021/05/03 18:44:38;;;;;;;5.80;2.90;;;;;;;;;;10486443;28;20646;-71
2021/05/03 18:49:47;;;;;;;6.37;2.80;;;;;;;;;;10443119;28;20672;-71
2021/05/03 18:54:49;;;;;;;6.67;2.93;;;;;;;;;;10443758;28;20209;-70
2021/05/03 18:59:52;;;;;;;5.70;3.00;;;;;;;;;;10439252;28;20216;-71
2021/05/03 19:04:53;;;;;;;7.10;2.97;;;;;;;;;;10439189;28;20219;-71
2021/05/03 19:09:55;;;;;;;9.10;2.87;;;;;;;;;;10461336;28;20270;-73
2021/05/03 19:14:59;;;;;;;6.23;3.30;;;;;;;;;;10460198;28;20212;-72
2021/05/03 19:20:00;;;;;;;6.37;3.00;;;;;;;;;;10479709;28;20262;-72
2021/05/03 19:25:03;;;;;;;7.47;3.40;;;;;;;;;;10483349;28;20683;-72
2021/05/03 19:30:07;;;;;;;6.50;3.20;;;;;;;;;;10478770;28;20246;-71
2021/05/03 19:35:10;;;;;;;7.60;3.70;;;;;;;;;;10479243;28;20246;-71
2021/05/03 19:40:12;;;;;;;8.70;4.27;;;;;;;;;;10481192;28;20193;-72
2021/05/03 19:45:14;;;;;;;9.93;4.43;;;;;;;;;;10520037;28;20281;-72
2021/05/03 19:50:39;;;;;;;8.53;4.20;;;;;;;;;;10481133;28;20314;-71
2021/05/03 19:56:00;;;;;;;8.47;4.23;;;;;;;;;;10478683;28;20262;-72
2021/05/03 20:06:35;;;;;;;9.70;4.23;;;;;;;;;;10434148;28;20278;-71
2021/05/03 20:11:37;;;;;;;10.47;4.30;;;;;;;;;;10490932;28;20262;-70
2021/05/03 20:16:39;;;;;;;8.70;3.90;;;;;;;;;;10488262;28;20197;-72
2021/05/03 20:21:41;;;;;;;7.53;3.80;;;;;;;;;;10491883;28;20204;-71
2021/05/03 20:26:43;;;;;;;7.17;3.80;;;;;;;;;;10491048;28;20505;-71
2021/05/03 20:31:46;;;;;;;8.07;3.73;;;;;;;;;;10493234;28;20590;-72
2021/05/03 20:37:05;;;;;;;8.07;3.80;;;;;;;;;;10492870;28;20188;-72
2021/05/03 20:42:07;;;;;;;8.13;3.60;;;;;;;;;;10494004;28;20243;-71
2021/05/03 20:47:09;;;;;;;6.13;2.83;;;;;;;;;;10492649;28;20204;-72
2021/05/03 20:52:12;;;;;;;7.33;3.47;;;;;;;;;;10482599;28;20216;-71
2021/05/03 20:57:14;;;;;;;7.00;2.90;;;;;;;;;;10480184;28;20211;-71
2021/05/03 21:02:17;;;;;;;7.23;3.00;;;;;;;;;;10487367;28;20294;-70
2021/05/03 21:07:20;;;;;;;8.23;4.07;;;;;;;;;;10470165;28;20637;-72
2021/05/03 21:12:22;;;;;;;8.70;4.10;;;;;;;;;;10516453;28;20305;-72
2021/05/03 21:17:24;;;;;;;8.87;4.13;;;;;;;;;;10484335;28;20559;-71
2021/05/03 21:22:27;;;;;;;7.47;3.60;;;;;;;;;;10492597;28;20367;-71
2021/05/03 21:27:29;;;;;;;10.73;4.10;;;;;;;;;;10494754;28;20279;-71
2021/05/03 21:32:31;;;;;;;6.27;3.03;;;;;;;;;;10490031;28;20234;-71
2021/05/03 21:37:33;;;;;;;6.47;3.20;;;;;;;;;;10493886;28;20192;-71
2021/05/03 21:42:34;;;;;;;8.33;4.00;;;;;;;;;;10491109;28;20238;-70
2021/05/03 21:47:37;;;;;;;9.23;4.10;;;;;;;;;;10492958;28;20291;-70
2021/05/03 21:52:39;;;;;;;7.43;3.33;;;;;;;;;;10491468;28;20274;-71
2021/05/03 21:57:40;;;;;;;8.17;3.93;;;;;;;;;;10492822;28;20231;-71
2021/05/03 22:02:43;;;;;;;7.63;4.10;;;;;;;;;;10490505;28;20258;-70
2021/05/03 22:07:44;;;;;;;7.57;4.17;;;;;;;;;;10485839;28;20193;-72
2021/05/03 22:12:46;;;;;;;8.37;2.90;;;;;;;;;;10521969;28;20227;-71
2021/05/03 22:18:00;;;;;;;8.50;3.30;;;;;;;;;;10502314;28;20563;-70
2021/05/03 22:23:40;;;;;;;7.87;3.27;;;;;;;;;;10491586;28;20625;-70
2021/05/03 22:28:30;;;;;;;6.87;3.33;;;;;;;;;;10489481;28;20224;-70
2021/05/03 22:33:35;;;;;;;7.27;3.83;;;;;;;;;;10492606;28;20222;-72
2021/05/03 22:38:40;;;;;;;7.53;3.50;;;;;;;;;;10491708;28;20268;-70
2021/05/03 23:05:34;;;;;;;5.60;2.80;;;;;;;;;;10487152;28;20273;-71
2021/05/03 23:11:03;;;;;;;6.50;3.20;;;;;;;;;;10481806;28;20191;-70
2021/05/03 23:16:23;;;;;;;6.87;3.30;;;;;;;;;;10483487;28;20184;-70
2021/05/03 23:21:25;;;;;;;5.40;3.03;;;;;;;;;;10487485;28;20212;-69
2021/05/03 23:26:27;;;;;;;4.13;2.10;;;;;;;;;;10489493;28;20742;-70
2021/05/03 23:31:28;;;;;;;5.77;2.70;;;;;;;;;;10478861;28;20333;-70
2021/05/03 23:36:31;;;;;;;4.03;2.40;;;;;;;;;;10482997;28;20197;-70
2021/05/03 23:41:32;;;;;;;5.53;2.17;;;;;;;;;;10489116;28;20209;-70
2021/05/03 23:46:35;;;;;;;2.90;1.50;;;;;;;;;;10487676;28;20228;-69
2021/05/03 23:51:38;;;;;;;5.33;2.90;;;;;;;;;;10490310;28;20208;-69
2021/05/03 23:56:40;;;;;;;4.73;2.30;;;;;;;;;;10487021;28;20265;-70
